createdAt,value
2019-05-15T00:01:12.199Z,56.70
2019-05-15T00:03:42.292Z,57.34
2019-05-15T00:06:12.304Z,57.74
2019-05-15T00:08:42.317Z,57.16
2019-05-15T00:11:12.306Z,57.44
2019-05-15T00:13:42.351Z,58.46
2019-05-15T00:16:12.365Z,57.10
2019-05-15T00:18:42.381Z,56.74
2019-05-15T00:21:12.401Z,58.50
2019-05-15T00:23:42.477Z,57.29
2019-05-15T00:26:12.527Z,56.95
2019-05-15T00:28:42.527Z,59.22
2019-05-15T00:31:12.570Z,58.08
2019-05-15T00:33:42.629Z,59.82
2019-05-15T00:36:12.613Z,59.08
2019-05-15T00:38:42.590Z,60.07
2019-05-15T00:41:12.566Z,58.20
2019-05-15T00:43:42.541Z,59.14
2019-05-15T00:46:12.544Z,57.54
2019-05-15T00:48:42.554Z,58.02
2019-05-15T00:51:14.741Z,57.20
2019-05-15T00:53:44.242Z,57.00
2019-05-15T00:56:14.376Z,57.22
2019-05-15T00:58:44.376Z,56.92
2019-05-15T01:01:14.372Z,58.98
2019-05-15T01:03:44.356Z,61.90
2019-05-15T01:06:14.372Z,60.35
2019-05-15T01:08:44.330Z,61.40
2019-05-15T01:11:14.498Z,62.96
2019-05-15T01:13:44.474Z,60.87
2019-05-15T01:16:14.445Z,59.58
2019-05-15T01:18:44.393Z,59.59
2019-05-15T01:21:14.468Z,59.31
2019-05-15T01:23:44.444Z,59.58
2019-05-15T01:26:14.424Z,59.30
2019-05-15T01:28:44.420Z,58.79
2019-05-15T01:31:14.508Z,57.97
2019-05-15T01:33:44.481Z,58.64
2019-05-15T01:36:14.453Z,60.65
2019-05-15T01:38:44.417Z,59.24
2019-05-15T01:41:14.396Z,60.50
2019-05-15T01:43:44.372Z,59.50
2019-05-15T01:46:14.463Z,59.16
2019-05-15T01:48:44.430Z,58.38
2019-05-15T01:51:14.485Z,58.99
2019-05-15T01:53:44.446Z,58.83
2019-05-15T01:56:14.446Z,59.21
2019-05-15T01:58:44.408Z,59.15
2019-05-15T02:01:14.493Z,59.98
2019-05-15T02:03:44.522Z,58.65
2019-05-15T02:06:14.532Z,58.70
2019-05-15T02:08:44.573Z,59.33
2019-05-15T02:11:14.620Z,61.21
2019-05-15T02:13:45.044Z,60.67
2019-05-15T02:16:15.102Z,59.30
2019-05-15T02:18:45.323Z,59.96
2019-05-15T02:21:15.305Z,59.98
2019-05-15T02:23:45.336Z,59.43
2019-05-15T02:26:15.376Z,59.48
2019-05-15T02:28:45.378Z,59.64
2019-05-15T02:31:15.359Z,59.65
2019-05-15T02:33:45.432Z,59.43
2019-05-15T02:36:15.384Z,59.55
2019-05-15T02:38:48.464Z,58.89
2019-05-15T02:41:19.539Z,58.82
2019-05-15T02:43:50.107Z,59.30
2019-05-15T02:46:20.315Z,59.68
2019-05-15T02:48:50.299Z,60.47
2019-05-15T02:51:20.272Z,59.88
2019-05-15T02:53:50.537Z,59.64
2019-05-15T02:56:21.041Z,59.49
2019-05-15T02:58:51.019Z,60.61
2019-05-15T03:01:20.981Z,61.83
2019-05-15T03:03:51.077Z,61.42
2019-05-15T03:06:21.116Z,62.45
2019-05-15T03:08:51.084Z,64.94
2019-05-15T03:11:21.025Z,66.16
2019-05-15T03:13:51.016Z,63.67
2019-05-15T03:16:20.983Z,62.26
2019-05-15T03:18:55.573Z,61.41
2019-05-15T03:21:22.764Z,61.88
2019-05-15T03:23:52.769Z,61.25
2019-05-15T03:26:22.738Z,60.83
2019-05-15T03:28:52.725Z,60.20
2019-05-15T03:31:41.741Z,60.60
2019-05-15T03:33:55.108Z,60.66
2019-05-15T03:36:31.151Z,60.74
2019-05-15T03:38:58.696Z,60.31
2019-05-15T03:41:29.890Z,60.14
2019-05-15T03:43:59.951Z,60.45
2019-05-15T03:46:29.939Z,60.07
2019-05-15T03:49:00.558Z,60.52
2019-05-15T03:51:30.913Z,60.32
2019-05-15T03:54:01.449Z,60.44
2019-05-15T03:56:31.453Z,60.06
2019-05-15T03:59:01.433Z,60.48
2019-05-15T04:01:38.747Z,60.40
2019-05-15T04:04:03.221Z,60.44
2019-05-15T04:06:33.207Z,60.77
2019-05-15T04:09:04.975Z,60.43
2019-05-15T04:11:34.981Z,60.61
2019-05-15T04:14:05.147Z,60.35
2019-05-15T04:16:35.110Z,60.78
2019-05-15T04:19:05.090Z,60.90
2019-05-15T04:21:35.048Z,60.84
2019-05-15T04:24:05.049Z,62.39
2019-05-15T04:26:35.128Z,60.92
2019-05-15T04:29:05.087Z,61.32
2019-05-15T04:31:50.335Z,62.24
2019-05-15T04:34:09.223Z,61.97
2019-05-15T04:36:39.639Z,63.13
2019-05-15T04:39:10.235Z,65.56
2019-05-15T04:41:40.150Z,63.33
2019-05-15T04:44:10.512Z,63.23
2019-05-15T04:46:40.708Z,64.89
2019-05-15T04:49:10.751Z,66.59
2019-05-15T04:51:40.717Z,68.78
2019-05-15T04:54:10.693Z,69.29
2019-05-15T04:56:40.650Z,70.00
2019-05-15T04:59:10.637Z,64.75
2019-05-15T05:01:40.659Z,68.01
2019-05-15T05:04:10.660Z,67.74
2019-05-15T05:06:41.477Z,68.01
2019-05-15T05:09:11.470Z,68.42
2019-05-15T05:11:41.422Z,68.20
2019-05-15T05:14:11.410Z,65.60
2019-05-15T05:16:41.389Z,69.25
2019-05-15T05:19:11.352Z,69.45
2019-05-15T05:21:41.336Z,70.15
2019-05-15T05:24:11.325Z,68.79
2019-05-15T05:26:41.296Z,68.43
2019-05-15T05:29:11.315Z,66.75
2019-05-15T05:31:41.281Z,67.00
2019-05-15T05:34:19.225Z,67.78
2019-05-15T05:36:48.144Z,67.46
2019-05-15T05:39:19.935Z,67.60
2019-05-15T05:41:49.852Z,66.80
2019-05-15T05:44:19.843Z,67.76
2019-05-15T05:46:49.836Z,68.80
2019-05-15T05:49:19.784Z,67.62
2019-05-15T05:51:49.752Z,68.62
2019-05-15T05:54:19.710Z,68.23
2019-05-15T05:56:49.671Z,67.73
2019-05-15T05:59:19.617Z,66.52
2019-05-15T06:01:49.646Z,67.27
2019-05-15T06:04:19.621Z,65.77
2019-05-15T06:07:06.247Z,66.14
2019-05-15T06:09:21.313Z,65.37
2019-05-15T06:11:51.296Z,64.62
2019-05-15T06:14:21.262Z,64.30
2019-05-15T06:16:51.242Z,64.00
2019-05-15T06:19:21.230Z,64.19
2019-05-15T06:21:56.837Z,63.32
2019-05-15T06:24:22.880Z,64.45
2019-05-15T06:26:52.902Z,63.31
2019-05-15T06:29:22.876Z,62.52
2019-05-15T06:31:52.870Z,62.32
2019-05-15T06:34:22.828Z,62.22
2019-05-15T06:36:52.807Z,61.60
2019-05-15T06:39:22.782Z,62.35
2019-05-15T06:41:52.898Z,62.43
2019-05-15T06:44:22.895Z,61.40
2019-05-15T06:46:52.862Z,59.69
2019-05-15T06:49:22.848Z,60.88
2019-05-15T06:51:52.824Z,60.71
2019-05-15T06:54:22.823Z,60.17
2019-05-15T06:56:52.800Z,60.51
2019-05-15T06:59:22.797Z,60.74
2019-05-15T07:01:52.806Z,61.38
2019-05-15T07:04:22.813Z,61.48
2019-05-15T07:06:52.797Z,60.68
2019-05-15T07:09:23.233Z,60.86
2019-05-15T07:11:53.250Z,60.00
2019-05-15T07:14:23.272Z,60.76
2019-05-15T07:16:53.359Z,60.97
2019-05-15T07:19:23.369Z,60.52
2019-05-15T07:21:53.337Z,59.59
2019-05-15T07:24:23.435Z,59.66
2019-05-15T07:26:53.379Z,58.79
2019-05-15T07:29:23.378Z,58.69
2019-05-15T07:31:53.339Z,58.69
2019-05-15T07:34:23.383Z,58.94
2019-05-15T07:36:53.345Z,57.83
2019-05-15T07:39:23.341Z,57.61
2019-05-15T07:41:53.355Z,57.74
2019-05-15T07:44:23.364Z,57.36
2019-05-15T07:46:53.334Z,55.94
2019-05-15T07:49:23.316Z,55.00
2019-05-15T07:51:53.277Z,55.67
2019-05-15T07:54:23.369Z,54.08
2019-05-15T07:56:53.341Z,54.02
2019-05-15T07:59:23.324Z,53.79
2019-05-15T08:01:53.487Z,53.24
2019-05-15T08:04:29.608Z,52.87
2019-05-15T08:06:55.237Z,51.49
2019-05-15T08:09:25.210Z,52.68
2019-05-15T08:11:55.204Z,51.31
2019-05-15T08:14:25.233Z,50.85
2019-05-15T08:16:55.245Z,51.41
2019-05-15T08:19:25.214Z,50.66
2019-05-15T08:21:55.201Z,50.62
2019-05-15T08:24:25.165Z,50.44
2019-05-15T08:26:55.195Z,50.49
2019-05-15T08:29:25.165Z,50.38
2019-05-15T08:31:55.168Z,49.63
2019-05-15T08:34:25.113Z,49.75
2019-05-15T08:36:55.195Z,49.53
2019-05-15T08:39:25.156Z,49.64
2019-05-15T08:41:55.133Z,48.42
2019-05-15T08:44:25.134Z,48.32
2019-05-15T08:46:55.127Z,47.95
2019-05-15T08:49:25.112Z,47.43
2019-05-15T08:51:55.081Z,46.38
2019-05-15T08:54:25.039Z,46.78
2019-05-15T08:56:55.030Z,45.87
2019-05-15T08:59:25.018Z,46.00
2019-05-15T09:01:55.017Z,47.57
2019-05-15T09:04:30.636Z,46.97
2019-05-15T09:07:01.034Z,46.78
2019-05-15T09:09:28.789Z,44.67
2019-05-15T09:11:58.971Z,46.68
2019-05-15T09:14:28.913Z,45.06
2019-05-15T09:16:58.911Z,45.46
2019-05-15T09:19:28.961Z,46.22
2019-05-15T09:21:58.957Z,46.69
2019-05-15T09:24:28.902Z,47.02
2019-05-15T09:26:59.634Z,47.43
2019-05-15T09:29:30.289Z,47.00
2019-05-15T09:32:00.438Z,45.39
2019-05-15T09:34:46.677Z,45.26
2019-05-15T09:37:02.127Z,45.23
2019-05-15T09:39:32.088Z,45.52
2019-05-15T09:42:02.081Z,44.98
2019-05-15T09:44:32.088Z,43.76
2019-05-15T09:47:02.096Z,44.44
2019-05-15T09:49:32.069Z,44.16
2019-05-15T09:52:02.064Z,44.29
2019-05-15T09:54:32.047Z,44.10
2019-05-15T09:57:02.019Z,43.53
2019-05-15T09:59:32.000Z,44.17
2019-05-15T10:02:02.018Z,45.03
2019-05-15T10:04:31.988Z,44.53
2019-05-15T10:07:02.127Z,45.03
2019-05-15T10:09:32.092Z,44.38
2019-05-15T10:12:03.353Z,44.38
2019-05-15T10:14:33.340Z,44.74
2019-05-15T10:17:03.388Z,45.00
2019-05-15T10:19:33.320Z,45.59
2019-05-15T10:22:03.317Z,45.30
2019-05-15T10:24:33.284Z,44.48
2019-05-15T10:27:03.363Z,45.59
2019-05-15T10:29:33.341Z,45.07
2019-05-15T10:32:03.353Z,45.64
2019-05-15T10:34:33.370Z,45.59
2019-05-15T10:37:03.330Z,44.09
2019-05-15T10:39:33.304Z,45.43
2019-05-15T10:42:03.302Z,45.69
2019-05-15T10:44:33.314Z,44.88
2019-05-15T10:47:03.283Z,44.80
2019-05-15T10:49:33.261Z,45.36
2019-05-15T10:52:04.050Z,45.53
2019-05-15T10:54:34.030Z,45.33
2019-05-15T10:57:05.332Z,44.85
2019-05-15T10:59:35.678Z,45.08
2019-05-15T11:02:05.728Z,45.87
2019-05-15T11:04:35.710Z,45.61
2019-05-15T11:07:05.680Z,44.88
2019-05-15T11:09:37.534Z,43.62
2019-05-15T11:12:08.734Z,43.11
2019-05-15T11:14:38.793Z,44.29
2019-05-15T11:17:08.797Z,44.13
2019-05-15T11:19:40.507Z,43.68
2019-05-15T11:22:10.483Z,42.73
2019-05-15T11:24:40.640Z,42.02
2019-05-15T11:27:10.600Z,42.13
2019-05-15T11:29:40.613Z,42.22
2019-05-15T11:32:10.565Z,41.45
2019-05-15T11:34:40.580Z,42.33
2019-05-15T11:37:10.545Z,42.30
2019-05-15T11:39:45.720Z,42.62
2019-05-15T11:42:12.256Z,42.86
2019-05-15T11:44:42.291Z,42.67
2019-05-15T11:47:12.269Z,42.52
2019-05-15T11:49:42.424Z,42.10
2019-05-15T11:52:12.401Z,42.40
2019-05-15T11:54:42.421Z,42.42
2019-05-15T11:57:12.363Z,42.39
2019-05-15T11:59:45.096Z,42.59
2019-05-15T12:02:14.079Z,41.49
2019-05-15T12:04:44.086Z,40.75
2019-05-15T12:07:14.077Z,40.21
2019-05-15T12:09:44.172Z,40.32
2019-05-15T12:12:14.223Z,40.33
2019-05-15T12:14:44.291Z,41.81
2019-05-15T12:17:15.488Z,41.77
2019-05-15T12:19:55.018Z,42.37
2019-05-15T12:22:17.306Z,41.81
2019-05-15T12:24:49.869Z,40.99
2019-05-15T12:27:19.056Z,41.68
2019-05-15T12:29:49.405Z,41.24
2019-05-15T12:34:51.222Z,40.61
2019-05-15T12:37:21.197Z,40.74
2019-05-15T13:00:07.446Z,40.82
2019-05-15T13:02:38.681Z,41.30
2019-05-15T13:05:08.798Z,41.19
2019-05-15T13:07:38.733Z,41.43
2019-05-15T13:10:09.015Z,40.83
2019-05-15T13:12:55.271Z,41.60
2019-05-15T13:15:10.681Z,41.23
2019-05-15T13:17:40.681Z,41.69
2019-05-15T13:20:10.854Z,41.63
2019-05-15T13:22:40.893Z,42.15
2019-05-15T13:25:12.010Z,41.26
2019-05-15T13:27:42.029Z,41.80
2019-05-15T13:30:12.299Z,41.50
2019-05-15T13:32:42.319Z,41.39
2019-05-15T13:35:12.528Z,41.42
2019-05-15T13:37:42.519Z,42.13
2019-05-15T13:40:12.592Z,41.69
2019-05-15T13:42:42.607Z,41.64
2019-05-15T13:45:13.671Z,41.84
2019-05-15T13:47:43.705Z,41.81
2019-05-15T13:50:13.728Z,42.11
2019-05-15T13:52:43.749Z,41.98
2019-05-15T13:55:13.730Z,41.36
2019-05-15T13:57:43.760Z,42.10
2019-05-15T14:00:14.119Z,41.84
2019-05-15T14:02:44.125Z,41.44
2019-05-15T14:05:14.111Z,41.42
2019-05-15T14:07:49.327Z,41.40
2019-05-15T14:10:17.974Z,41.99
2019-05-15T14:12:47.956Z,42.39
2019-05-15T14:15:19.052Z,42.30
2019-05-15T14:17:49.071Z,42.60
2019-05-15T14:20:19.036Z,41.85
2019-05-15T14:22:49.121Z,42.07
2019-05-15T14:25:19.144Z,42.12
2019-05-15T14:27:49.148Z,42.16
2019-05-15T14:30:19.456Z,42.37
2019-05-15T14:32:49.434Z,41.97
2019-05-15T14:35:19.412Z,42.80
2019-05-15T14:38:02.560Z,42.58
2019-05-15T14:40:21.112Z,42.26
2019-05-15T14:42:51.136Z,42.15
2019-05-15T14:45:21.165Z,42.10
2019-05-15T14:47:51.166Z,42.10
2019-05-15T14:50:21.139Z,42.19
2019-05-15T14:52:51.160Z,41.96
2019-05-15T14:55:21.127Z,42.37
2019-05-15T14:57:51.134Z,42.36
2019-05-15T15:00:21.398Z,42.82
2019-05-15T15:02:51.477Z,42.88
2019-05-15T15:05:23.137Z,42.84
2019-05-15T15:07:53.361Z,43.60
2019-05-15T15:10:23.345Z,43.69
2019-05-15T15:12:53.368Z,43.77
2019-05-15T15:15:23.328Z,44.00
2019-05-15T15:17:53.365Z,44.25
2019-05-15T15:20:23.716Z,44.41
2019-05-15T15:22:53.726Z,44.75
2019-05-15T15:25:23.714Z,45.22
2019-05-15T15:27:53.746Z,45.75
2019-05-15T15:30:23.746Z,46.21
2019-05-15T15:32:53.728Z,45.86
2019-05-15T15:35:23.696Z,45.46
2019-05-15T15:37:53.688Z,45.07
2019-05-15T15:40:23.676Z,44.95
2019-05-15T15:42:53.685Z,44.08
2019-05-15T15:45:23.766Z,43.94
2019-05-15T15:47:53.784Z,43.58
2019-05-15T15:50:23.768Z,43.52
2019-05-15T15:52:53.782Z,43.36
2019-05-15T15:55:23.764Z,43.60
2019-05-15T15:57:53.768Z,43.12
2019-05-15T16:00:23.795Z,43.51
2019-05-15T16:02:53.808Z,43.36
2019-05-15T16:05:23.816Z,43.60
2019-05-15T16:07:53.814Z,43.77
2019-05-15T16:10:23.847Z,43.89
2019-05-15T16:12:53.806Z,43.89
2019-05-15T16:15:23.822Z,43.37
2019-05-15T16:17:54.122Z,43.20
2019-05-15T16:20:24.121Z,42.98
2019-05-15T16:22:54.147Z,42.91
2019-05-15T16:25:24.132Z,42.65
2019-05-15T16:27:54.125Z,41.89
2019-05-15T16:30:24.615Z,41.76
2019-05-15T16:32:54.665Z,41.78
2019-05-15T16:35:24.687Z,40.98
2019-05-15T16:37:54.686Z,41.09
2019-05-15T16:40:24.732Z,41.05
2019-05-15T16:42:54.701Z,40.94
2019-05-15T16:45:24.712Z,40.86
2019-05-15T16:47:55.594Z,39.50
2019-05-15T16:50:25.682Z,39.06
2019-05-15T16:52:55.677Z,38.41
2019-05-15T16:55:25.816Z,38.14
2019-05-15T16:57:55.785Z,38.13
2019-05-15T17:00:25.746Z,38.39
2019-05-15T17:03:08.612Z,37.92
2019-05-15T17:05:29.165Z,37.95
2019-05-15T17:07:59.318Z,37.46
2019-05-15T17:10:29.325Z,37.45
2019-05-15T17:12:59.320Z,37.55
2019-05-15T17:15:29.716Z,38.25
2019-05-15T17:17:59.683Z,37.80
2019-05-15T17:20:29.704Z,38.29
2019-05-15T17:22:59.720Z,38.56
2019-05-15T17:25:29.733Z,38.86
2019-05-15T17:27:59.709Z,38.95
2019-05-15T17:30:30.023Z,38.39
2019-05-15T17:33:00.069Z,38.39
2019-05-15T17:35:30.064Z,38.22
2019-05-15T17:38:00.108Z,37.03
2019-05-15T17:40:30.185Z,36.13
2019-05-15T17:43:02.579Z,35.96
2019-05-15T17:45:31.935Z,35.24
2019-05-15T17:48:01.964Z,34.69
2019-05-15T17:50:45.114Z,35.19
2019-05-15T17:53:03.643Z,34.75
2019-05-15T17:55:33.653Z,35.29
2019-05-15T17:58:03.676Z,35.09
2019-05-15T18:00:34.003Z,35.37
2019-05-15T18:03:04.167Z,35.72
2019-05-15T18:05:34.185Z,36.00
2019-05-15T18:08:04.156Z,36.46
2019-05-15T18:10:34.180Z,36.42
2019-05-15T18:13:04.184Z,37.33
2019-05-15T18:15:34.363Z,37.63
2019-05-15T18:18:04.355Z,38.33
2019-05-15T18:20:34.402Z,38.81
2019-05-15T18:23:04.365Z,39.61
2019-05-15T18:25:34.377Z,39.71
2019-05-15T18:28:04.389Z,40.35
2019-05-15T18:30:34.679Z,40.21
2019-05-15T18:33:04.665Z,40.33
2019-05-15T18:35:34.705Z,40.85
2019-05-15T18:38:04.677Z,41.16
2019-05-15T18:40:34.697Z,42.12
2019-05-15T18:43:04.718Z,42.45
2019-05-15T18:45:35.041Z,42.32
2019-05-15T18:48:05.063Z,43.12
2019-05-15T18:50:35.075Z,43.44
2019-05-15T18:53:05.240Z,43.80
2019-05-15T18:55:35.227Z,43.88
2019-05-15T18:58:05.294Z,44.50
2019-05-15T19:00:36.180Z,44.81
2019-05-15T19:03:19.118Z,45.25
2019-05-15T19:05:38.644Z,45.70
2019-05-15T19:08:08.859Z,45.56
2019-05-15T19:10:38.886Z,45.76
2019-05-15T19:13:08.913Z,46.22
2019-05-15T19:15:39.179Z,46.53
2019-05-15T19:18:09.174Z,46.34
2019-05-15T19:20:39.251Z,46.11
2019-05-15T19:23:09.352Z,46.55
2019-05-15T19:25:39.358Z,46.86
2019-05-15T19:28:09.386Z,46.65
2019-05-15T19:30:39.359Z,47.23
2019-05-15T19:33:09.406Z,46.94
2019-05-15T19:35:39.391Z,47.11
2019-05-15T19:38:09.410Z,47.12
2019-05-15T19:40:39.419Z,46.96
2019-05-15T19:43:09.471Z,47.41
2019-05-15T19:45:39.476Z,47.82
2019-05-15T19:48:09.507Z,47.88
2019-05-15T19:50:39.606Z,47.41
2019-05-15T19:53:09.618Z,47.94
2019-05-15T19:55:39.652Z,48.57
2019-05-15T19:58:09.634Z,48.10
2019-05-15T20:00:39.640Z,48.89
2019-05-15T20:03:09.823Z,48.74
2019-05-15T20:05:39.851Z,49.10
2019-05-15T20:08:09.892Z,48.83
2019-05-15T20:10:40.130Z,49.25
2019-05-15T20:13:10.172Z,49.50
2019-05-15T20:15:40.128Z,49.52
2019-05-15T20:18:10.445Z,49.36
2019-05-15T20:20:40.452Z,49.89
2019-05-15T20:23:10.542Z,49.72
2019-05-15T20:25:40.608Z,50.41
2019-05-15T20:28:10.629Z,50.64
2019-05-15T20:30:40.649Z,50.64
2019-05-15T20:33:11.291Z,50.77
2019-05-15T20:35:41.284Z,50.97
2019-05-15T20:38:11.357Z,51.19
2019-05-15T20:40:41.338Z,51.63
2019-05-15T20:43:11.410Z,52.32
2019-05-15T20:45:41.431Z,51.46
2019-05-15T20:48:11.458Z,51.95
2019-05-15T20:50:41.456Z,52.38
2019-05-15T20:53:12.312Z,53.01
2019-05-15T20:55:42.333Z,53.50
2019-05-15T20:58:12.345Z,53.76
2019-05-15T21:00:42.347Z,53.74
2019-05-15T21:03:12.341Z,53.37
2019-05-15T21:05:42.546Z,54.34
2019-05-15T21:08:12.568Z,53.95
2019-05-15T21:10:43.198Z,53.79
2019-05-15T21:13:13.149Z,54.43
2019-05-15T21:15:43.160Z,54.69
2019-05-15T21:18:15.418Z,55.26
2019-05-15T21:20:44.828Z,56.45
2019-05-15T21:23:14.831Z,56.09
2019-05-15T21:25:44.843Z,56.75
2019-05-15T21:28:14.828Z,56.19
2019-05-15T21:30:44.856Z,57.16
2019-05-15T21:33:14.920Z,57.49
2019-05-15T21:35:44.912Z,58.85
2019-05-15T21:38:14.934Z,58.85
2019-05-15T21:40:44.953Z,58.78
2019-05-15T21:43:14.994Z,58.77
2019-05-15T21:45:45.024Z,59.34
2019-05-15T21:48:15.046Z,60.21
2019-05-15T21:50:45.043Z,61.25
2019-05-15T21:53:15.262Z,58.20
2019-05-15T21:55:45.376Z,60.62
2019-05-15T21:58:18.613Z,60.62
2019-05-15T22:00:51.576Z,61.23
2019-05-15T22:03:21.725Z,62.42
2019-05-15T22:05:51.748Z,61.05
2019-05-15T22:08:21.919Z,63.29
2019-05-15T22:10:52.054Z,63.55
2019-05-15T22:13:22.031Z,64.14
2019-05-15T22:15:52.043Z,64.14
2019-05-15T22:18:22.480Z,63.39
2019-05-15T22:20:52.506Z,65.32
2019-05-15T22:23:22.764Z,65.32
2019-05-15T22:25:52.818Z,64.96
2019-05-15T22:28:22.784Z,66.13
2019-05-15T22:30:52.768Z,66.53
2019-05-15T22:33:22.834Z,65.93
2019-05-15T22:35:52.837Z,65.93
2019-05-15T22:38:22.814Z,66.90
2019-05-15T22:40:52.801Z,67.55
2019-05-15T22:43:22.751Z,67.55
2019-05-15T22:45:52.745Z,68.03
2019-05-15T22:48:22.690Z,68.03
2019-05-15T22:50:52.685Z,70.01
2019-05-15T22:53:22.676Z,70.35
2019-05-15T22:55:53.053Z,69.75
2019-05-15T22:58:23.058Z,69.75
2019-05-15T23:00:53.035Z,69.61
2019-05-15T23:03:23.022Z,69.61
2019-05-15T23:05:53.044Z,70.06
2019-05-15T23:08:23.008Z,69.00
2019-05-15T23:10:53.173Z,69.53
2019-05-15T23:13:23.154Z,70.30
2019-05-15T23:15:53.123Z,69.20
2019-05-15T23:18:23.134Z,69.20
2019-05-15T23:20:53.131Z,69.20
2019-05-15T23:23:23.131Z,70.61
2019-05-15T23:25:53.110Z,70.47
2019-05-15T23:28:23.115Z,69.87
2019-05-15T23:30:53.081Z,70.80
2019-05-15T23:33:23.147Z,70.41
2019-05-15T23:35:53.135Z,70.41
2019-05-15T23:38:23.121Z,70.86
2019-05-15T23:40:53.107Z,69.87
2019-05-15T23:43:23.088Z,71.24
2019-05-15T23:45:53.043Z,71.22
2019-05-15T23:48:23.028Z,70.89
2019-05-15T23:50:53.001Z,71.66
2019-05-15T23:53:22.984Z,70.56
2019-05-15T23:55:52.990Z,70.56
2019-05-15T23:58:22.983Z,71.37
